Time;durP1;ratioP1;P1;durP2;ratioP2;P2;SDS_P1;SDS_P2;PMS_P1;PMS_P2;Temp;Humidity;BMP_temperature;BMP_pressure;BME280_temperature;BME280_humidity;BME280_pressure;Samples;Min_cycle;Max_cycle;Signal;HPM_P1;HPM_P2
2024/04/24 00:00:20;;;;;;;35.10;6.03;;;;;;;26.05;42.41;100104.69;11089763;26;20004;-93
2024/04/24 00:05:44;;;;;;;34.33;5.05;;;;;;;26.02;42.84;100094.03;11106231;26;20004;-94
2024/04/24 00:11:10;;;;;;;31.05;5.32;;;;;;;25.95;43.54;100089.94;11127591;26;20329;-94
2024/04/24 00:16:40;;;;;;;31.52;5.07;;;;;;;25.87;43.98;100098.50;11134922;26;20014;-93
2024/04/24 00:22:06;;;;;;;26.23;4.57;;;;;;;25.75;44.65;100110.03;11096382;26;20000;-92
2024/04/24 00:27:31;;;;;;;28.23;5.70;;;;;;;25.66;45.42;100095.25;11129573;26;20009;-94
2024/04/24 00:32:59;;;;;;;21.90;4.55;;;;;;;25.60;46.22;100105.53;11133290;26;20332;-91
2024/04/24 00:38:23;;;;;;;28.17;5.43;;;;;;;25.54;46.82;100113.91;11132423;26;20000;-92
2024/04/24 00:43:48;;;;;;;37.42;6.25;;;;;;;25.53;47.59;100087.88;11123802;26;20008;-94
2024/04/24 00:49:15;;;;;;;29.35;6.05;;;;;;;25.47;48.84;100105.28;11095538;26;20008;-92
2024/04/24 00:54:41;;;;;;;23.60;5.35;;;;;;;25.39;49.81;100073.31;11108033;26;20012;-94
2024/04/24 01:00:09;;;;;;;34.75;6.95;;;;;;;25.38;50.68;100076.09;11106264;26;20016;-94
2024/04/24 01:05:37;;;;;;;26.80;5.40;;;;;;;25.37;51.28;100063.53;11070666;26;20019;-94
2024/04/24 01:11:02;;;;;;;26.92;6.10;;;;;;;25.34;52.13;100085.31;11106072;26;20012;-92
2024/04/24 01:16:31;;;;;;;23.20;4.40;;;;;;;25.35;52.80;100081.66;11131618;26;20376;-95
2024/04/24 01:22:08;;;;;;;32.03;5.70;;;;;;;25.37;54.17;100087.84;11109015;26;20826;-91
2024/04/24 01:27:35;;;;;;;;;;;;;;;25.40;54.72;100071.47;11129750;26;20044;-90
2024/04/24 01:32:59;;;;;;;23.33;5.28;;;;;;;25.36;57.25;100078.88;11094348;26;19934;-96
2024/04/24 01:38:23;;;;;;;30.02;5.07;;;;;;;25.47;57.87;100063.91;11126987;26;20032;-94
2024/04/24 01:43:50;;;;;;;27.77;5.55;;;;;;;25.50;59.33;100072.69;11100464;26;20336;-94
2024/04/24 01:49:15;;;;;;;29.85;6.40;;;;;;;25.49;60.81;100065.53;11058083;26;20457;-93
2024/04/24 01:54:39;;;;;;;30.73;7.03;;;;;;;25.49;62.37;100052.00;11102763;26;20109;-95
2024/04/24 02:00:07;;;;;;;34.90;6.32;;;;;;;25.49;64.61;100043.91;11125673;26;20448;-95
2024/04/24 02:05:38;;;;;;;35.80;6.50;;;;;;;25.47;65.92;100069.31;11122414;26;20011;-93
2024/04/24 02:11:02;;;;;;;37.47;7.20;;;;;;;25.64;67.36;100061.13;11131176;26;20000;-95
2024/04/24 02:16:30;;;;;;;30.17;6.25;;;;;;;25.80;67.24;100076.34;11101815;26;20036;-93
2024/04/24 02:21:55;;;;;;;29.38;5.55;;;;;;;25.85;66.31;100108.56;11096638;26;20069;-92
2024/04/24 02:27:20;;;;;;;40.95;7.68;;;;;;;25.94;65.26;100116.13;11127665;26;20383;-92
2024/04/24 02:32:48;;;;;;;31.25;6.60;;;;;;;25.99;66.53;100132.13;11129241;26;20388;-92
2024/04/24 02:38:14;;;;;;;32.55;7.35;;;;;;;26.03;66.18;100149.91;11117247;26;20014;-93
2024/04/24 02:43:40;;;;;;;36.58;7.53;;;;;;;26.09;65.12;100166.66;11126780;26;20018;-93
2024/04/24 02:49:07;;;;;;;45.55;8.10;;;;;;;26.13;64.47;100179.03;11079164;26;20010;-92
2024/04/24 02:54:31;;;;;;;41.63;7.82;;;;;;;26.14;64.02;100185.31;11087568;26;20010;-91
2024/04/24 02:59:55;;;;;;;43.70;8.30;;;;;;;26.17;62.52;100198.69;11101905;26;20052;-92
2024/04/24 03:05:22;;;;;;;61.90;10.43;;;;;;;26.02;65.57;100204.97;11086557;26;20074;-91
2024/04/24 03:10:46;;;;;;;48.88;9.07;;;;;;;25.86;68.66;100213.09;11119994;26;20322;-91
2024/04/24 03:16:12;;;;;;;92.90;15.00;;;;;;;25.62;76.99;100233.38;11101654;26;20000;-91
2024/04/24 03:21:39;;;;;;;111.28;17.17;;;;;;;25.25;86.28;100247.97;11107121;26;20451;-92
2024/04/24 03:27:03;;;;;;;155.52;19.55;;;;;;;24.93;91.49;100255.06;11126109;26;20008;-88
2024/04/24 03:32:28;;;;;;;152.18;21.48;;;;;;;24.68;93.63;100274.28;11096246;26;20440;-90
2024/04/24 03:37:55;;;;;;;131.65;20.15;;;;;;;24.72;93.83;100292.09;11063216;26;20004;-90
2024/04/24 03:43:21;;;;;;;171.68;23.33;;;;;;;24.66;95.85;100296.94;11126370;26;20714;-90
2024/04/24 03:48:47;;;;;;;177.27;23.20;;;;;;;24.71;95.75;100295.75;11100729;26;20081;-89
2024/04/24 03:54:14;;;;;;;158.85;22.00;;;;;;;24.69;96.51;100292.25;11126108;26;20414;-91
2024/04/24 03:59:38;;;;;;;158.43;22.88;;;;;;;24.70;96.88;100291.28;11122058;26;20000;-90
2024/04/24 04:05:03;;;;;;;160.18;25.30;;;;;;;24.64;99.21;100294.31;11131276;26;20000;-90
2024/04/24 04:10:31;;;;;;;181.40;25.80;;;;;;;24.53;100.00;100292.16;11040547;26;20005;-89
2024/04/24 04:15:55;;;;;;;;;;;;;;;24.51;100.00;100298.56;11067546;26;20068;-90
2024/04/24 04:21:20;;;;;;;161.20;23.55;;;;;;;24.31;100.00;100307.63;11108659;26;19966;-91
2024/04/24 04:26:47;;;;;;;151.27;22.83;;;;;;;24.21;100.00;100307.22;11129335;26;20015;-91
2024/04/24 04:32:12;;;;;;;164.98;24.50;;;;;;;24.15;100.00;100307.47;11107922;26;20004;-89
2024/04/24 04:37:36;;;;;;;175.60;25.55;;;;;;;24.12;100.00;100309.41;11131278;26;20000;-90
2024/04/24 04:43:03;;;;;;;160.43;26.00;;;;;;;24.32;100.00;100306.69;11106701;26;20036;-90
2024/04/24 04:48:27;;;;;;;155.48;23.23;;;;;;;24.42;100.00;100307.97;11132311;26;20000;-89
2024/04/24 04:53:51;;;;;;;137.05;23.85;;;;;;;24.51;100.00;100304.84;11131620;26;20330;-90
2024/04/24 04:59:18;;;;;;;146.00;22.65;;;;;;;24.83;100.00;100308.63;11161531;26;20036;-90
2024/04/24 05:04:42;;;;;;;143.73;23.20;;;;;;;25.18;100.00;100312.28;11097310;26;20014;-89
2024/04/24 05:10:06;;;;;;;137.80;21.15;;;;;;;25.47;100.00;100310.72;11128467;26;20020;-91
2024/04/24 05:15:33;;;;;;;142.82;20.45;;;;;;;25.66;100.00;100321.50;11103907;26;20078;-90
2024/04/24 05:20:58;;;;;;;143.90;21.43;;;;;;;25.76;100.00;100325.44;11140084;26;20016;-91
2024/04/24 05:32:19;;;;;;;135.23;19.63;;;;;;;26.19;100.00;100332.94;10934989;27;20033;-91
2024/04/24 05:37:43;;;;;;;109.30;17.00;;;;;;;26.26;100.00;100328.09;11107927;26;20011;-92
2024/04/24 05:43:08;;;;;;;106.25;15.45;;;;;;;25.99;100.00;100325.03;11092557;26;20437;-87
2024/04/24 05:48:34;;;;;;;99.63;16.58;;;;;;;25.91;100.00;100345.38;11129109;26;20004;-91
2024/04/24 05:54:00;;;;;;;100.30;17.50;;;;;;;25.95;100.00;100355.06;11063466;26;20012;-92
2024/04/24 05:59:24;;;;;;;102.72;16.80;;;;;;;25.95;100.00;100347.81;11123039;26;20014;-91
2024/04/24 06:04:51;;;;;;;97.88;13.68;;;;;;;26.20;100.00;100359.03;11129442;26;20049;-90
2024/04/24 06:10:15;;;;;;;94.45;16.38;;;;;;;26.32;100.00;100354.81;11089662;26;20036;-91
2024/04/24 06:15:40;;;;;;;95.93;15.25;;;;;;;26.42;100.00;100347.94;11123437;26;20005;-90
2024/04/24 06:21:07;;;;;;;93.65;16.30;;;;;;;26.28;100.00;100357.78;11122649;26;20047;-91
2024/04/24 06:26:31;;;;;;;94.63;16.42;;;;;;;26.30;100.00;100356.75;11130497;26;20015;-90
2024/04/24 06:31:57;;;;;;;116.00;17.15;;;;;;;26.19;100.00;100359.13;11137145;26;20012;-89
2024/04/24 06:37:25;;;;;;;86.78;15.63;;;;;;;26.22;100.00;100366.22;11127553;26;20007;-89
2024/04/24 06:42:51;;;;;;;94.57;15.00;;;;;;;26.22;100.00;100375.22;11126133;26;20038;-89
2024/04/24 06:48:15;;;;;;;102.93;15.68;;;;;;;26.03;100.00;100378.06;11134293;26;20004;-89
2024/04/24 06:53:42;;;;;;;98.70;16.15;;;;;;;26.01;100.00;100382.66;11110456;26;20078;-90
2024/04/24 06:59:06;;;;;;;97.70;16.07;;;;;;;26.01;100.00;100390.78;11097503;26;20010;-90
2024/04/24 07:04:31;;;;;;;88.93;14.95;;;;;;;25.92;100.00;100385.00;11101201;26;20336;-90
2024/04/24 07:09:57;;;;;;;94.47;15.88;;;;;;;25.99;100.00;100394.53;11154018;26;20005;-83
2024/04/24 07:15:22;;;;;;;108.55;16.23;;;;;;;25.84;100.00;100389.94;11149621;26;20316;-86
2024/04/24 07:20:46;;;;;;;105.75;17.75;;;;;;;25.67;100.00;100404.34;11180988;26;20018;-88
2024/04/24 07:26:14;;;;;;;90.10;14.85;;;;;;;25.57;100.00;100412.06;11109536;26;20004;-83
2024/04/24 07:31:39;;;;;;;104.72;15.90;;;;;;;25.48;100.00;100408.91;11107654;26;20023;-87
2024/04/24 07:37:04;;;;;;;92.07;14.25;;;;;;;25.49;100.00;100405.28;11095133;26;20023;-84
2024/04/24 07:42:31;;;;;;;91.60;16.40;;;;;;;25.72;100.00;100405.88;11073565;26;20009;-83
2024/04/24 07:47:55;;;;;;;91.63;16.10;;;;;;;26.16;100.00;100399.91;11110749;26;20001;-84
2024/04/24 07:53:19;;;;;;;90.45;15.32;;;;;;;26.13;100.00;100403.63;11131532;26;20391;-84
2024/04/24 07:58:47;;;;;;;93.63;15.23;;;;;;;26.17;100.00;100418.78;11106709;26;20000;-88
2024/04/24 08:04:12;;;;;;;85.03;14.57;;;;;;;26.27;100.00;100411.03;11107889;26;20000;-89
2024/04/24 08:09:36;;;;;;;82.50;13.77;;;;;;;26.39;100.00;100406.78;11095489;26;20485;-86
2024/04/24 08:15:03;;;;;;;78.97;13.00;;;;;;;26.63;100.00;100420.81;11161042;26;20081;-89
2024/04/24 08:20:27;;;;;;;;;;;;;;;27.04;100.00;100408.53;11135254;26;20597;-85
2024/04/24 08:25:52;;;;;;;86.68;13.38;;;;;;;27.43;99.97;100407.13;10952882;26;132114;-92
2024/04/24 08:31:20;;;;;;;80.93;12.43;;;;;;;27.73;97.80;100421.56;10914116;26;21235;-90
2024/04/24 08:36:47;;;;;;;84.57;13.68;;;;;;;28.29;93.67;100409.94;10919727;26;21295;-91
2024/04/24 08:42:13;;;;;;;69.18;12.25;;;;;;;28.67;87.65;100393.03;10912891;27;47089;-88
2024/04/24 08:47:41;;;;;;;67.35;11.68;;;;;;;29.28;83.07;100406.16;10913052;27;20006;-86
2024/04/24 08:53:08;;;;;;;68.57;12.70;;;;;;;29.30;79.00;100394.19;10940116;27;92887;-86
2024/04/24 08:58:35;;;;;;;70.07;13.07;;;;;;;29.40;76.73;100399.06;10935027;27;20010;-82
2024/04/24 09:04:08;;;;;;;71.70;12.93;;;;;;;29.51;75.36;100394.63;10959982;27;20005;-93
2024/04/24 09:09:33;;;;;;;71.70;12.98;;;;;;;29.51;74.24;100389.19;10961402;27;20016;-83
2024/04/24 09:14:57;;;;;;;73.30;11.57;;;;;;;29.38;74.14;100379.25;10916809;27;20353;-90
2024/04/24 09:20:25;;;;;;;74.47;12.63;;;;;;;29.18;75.23;100386.88;10962394;26;20009;-90
2024/04/24 09:25:50;;;;;;;80.50;13.15;;;;;;;29.28;74.47;100374.38;10982698;27;20013;-91
2024/04/24 09:31:14;;;;;;;65.50;10.27;;;;;;;29.55;70.40;100371.66;10943846;27;20094;-83
2024/04/24 09:36:41;;;;;;;62.47;10.93;;;;;;;29.95;66.09;100377.94;10964318;27;20049;-81
2024/04/24 09:42:06;;;;;;;58.55;10.50;;;;;;;29.91;65.60;100379.09;10924286;26;20011;-85
2024/04/24 09:47:30;;;;;;;51.22;9.98;;;;;;;29.90;66.32;100371.03;10887580;27;20031;-90
2024/04/24 09:53:02;;;;;;;55.72;12.35;;;;;;;30.01;63.65;100385.66;10927932;26;20120;-92
2024/04/24 09:58:28;;;;;;;49.78;10.57;;;;;;;30.19;62.43;100364.44;10951280;27;20006;-90
2024/04/24 10:03:57;;;;;;;62.03;10.77;;;;;;;30.32;61.14;100378.03;10979202;26;20014;-87
2024/04/24 10:09:33;;;;;;;69.05;10.35;;;;;;;30.32;58.89;100378.03;10974798;27;20002;-87
2024/04/24 10:15:10;;;;;;;64.32;10.48;;;;;;;30.42;58.31;100365.47;10983461;27;20016;-88
2024/04/24 10:20:36;;;;;;;58.50;11.23;;;;;;;30.62;57.32;100367.63;11011209;26;20053;-90
2024/04/24 10:26:03;;;;;;;55.80;11.53;;;;;;;30.74;52.16;100369.44;10920437;27;20001;-86
2024/04/24 10:31:28;;;;;;;49.65;8.23;;;;;;;30.92;50.11;100385.44;10933485;26;20010;-84
2024/04/24 10:36:54;;;;;;;67.40;9.75;;;;;;;30.78;49.17;100370.09;10954025;26;20405;-89
2024/04/24 10:42:22;;;;;;;;;;;;;;;30.82;48.68;100372.47;10928683;27;20018;-88
2024/04/24 10:47:46;;;;;;;59.33;11.50;;;;;;;30.76;48.05;100353.84;10906706;27;19927;-87
2024/04/24 10:53:15;;;;;;;53.53;9.32;;;;;;;30.97;46.06;100359.56;10967361;27;20495;-88
2024/04/24 10:58:53;;;;;;;55.47;8.77;;;;;;;31.08;44.44;100345.13;10927623;27;20035;-83
2024/04/24 11:04:18;;;;;;;47.65;8.60;;;;;;;31.05;42.60;100339.91;10954276;27;20798;-87
2024/04/24 11:09:43;;;;;;;54.25;9.07;;;;;;;30.85;42.67;100349.56;10923431;27;20026;-88
2024/04/24 11:15:22;;;;;;;54.45;8.77;;;;;;;31.00;42.15;100339.34;10952188;27;20438;-83
2024/04/24 11:20:46;;;;;;;60.53;10.80;;;;;;;31.10;41.87;100333.13;10926563;27;20081;-84
2024/04/24 11:26:10;;;;;;;63.10;9.23;;;;;;;31.18;41.59;100329.78;10946024;27;20028;-82
2024/04/24 11:31:40;;;;;;;53.70;9.18;;;;;;;31.05;41.34;100329.00;10960848;26;20024;-84
2024/04/24 11:37:05;;;;;;;42.00;9.52;;;;;;;30.88;41.05;100319.34;10942488;27;20014;-85
2024/04/24 11:42:29;;;;;;;41.65;8.82;;;;;;;30.55;41.81;100306.38;10957958;27;20002;-85
2024/04/24 11:47:56;;;;;;;40.05;7.53;;;;;;;30.28;41.80;100309.25;10941024;27;20342;-83
2024/04/24 11:53:21;;;;;;;40.97;7.45;;;;;;;30.09;42.33;100317.03;10972455;27;20017;-89
2024/04/24 11:58:46;;;;;;;43.33;7.60;;;;;;;29.67;43.00;100316.38;10967172;27;20699;-91
2024/04/24 12:04:17;;;;;;;48.20;8.85;;;;;;;29.58;43.27;100305.28;10949186;27;20338;-90
2024/04/24 12:09:44;;;;;;;59.65;9.07;;;;;;;29.54;43.37;100306.44;10946597;27;20001;-90
2024/04/24 12:15:10;;;;;;;;;;;;;;;29.63;42.88;100309.41;10960917;27;20014;-91
2024/04/24 12:20:37;;;;;;;38.83;7.05;;;;;;;29.51;42.14;100303.97;10944538;27;20356;-88
2024/04/24 12:26:01;;;;;;;46.70;7.03;;;;;;;29.37;42.47;100293.16;10915471;27;20084;-88
2024/04/24 12:31:25;;;;;;;41.65;7.15;;;;;;;29.51;41.90;100296.69;10953571;26;19999;-75
2024/04/24 12:36:54;;;;;;;39.83;7.00;;;;;;;29.60;40.23;100281.56;10973819;27;20072;-78
2024/04/24 12:42:18;;;;;;;39.72;7.60;;;;;;;29.57;39.61;100277.19;10960402;27;20088;-80
2024/04/24 12:47:42;;;;;;;41.45;7.70;;;;;;;29.37;39.37;100271.41;10984275;27;20030;-80
2024/04/24 12:53:09;;;;;;;47.75;8.43;;;;;;;29.32;39.58;100267.16;10983638;27;20442;-80
2024/04/24 12:58:33;;;;;;;64.25;9.02;;;;;;;29.19;40.14;100276.25;10981222;27;20002;-79
2024/04/24 13:03:58;;;;;;;49.38;8.05;;;;;;;29.02;40.66;100279.25;10951926;27;20021;-79
2024/04/24 13:09:25;;;;;;;61.50;9.05;;;;;;;28.80;40.81;100278.03;10943091;27;20155;-81
2024/04/24 13:14:49;;;;;;;54.47;8.27;;;;;;;28.80;40.39;100272.59;10904914;27;20016;-81
2024/04/24 13:20:13;;;;;;;46.78;7.95;;;;;;;28.63;41.02;100270.06;10945325;27;20028;-81
2024/04/24 13:25:40;;;;;;;50.03;7.88;;;;;;;28.40;42.35;100274.34;10982909;27;20533;-83
2024/04/24 13:31:04;;;;;;;46.05;8.32;;;;;;;28.15;44.07;100274.22;10971959;27;20080;-82
2024/04/24 13:36:28;;;;;;;52.97;8.43;;;;;;;28.13;45.20;100267.97;10959892;27;20013;-81
2024/04/24 13:41:55;;;;;;;45.05;8.57;;;;;;;28.02;47.00;100270.50;10973776;27;20401;-79
2024/04/24 13:47:21;;;;;;;48.70;8.70;;;;;;;27.81;49.70;100278.19;10957941;27;20005;-79
2024/04/24 13:52:45;;;;;;;61.78;8.98;;;;;;;27.66;50.12;100274.59;10958740;27;20006;-81
2024/04/24 13:58:12;;;;;;;57.33;8.23;;;;;;;27.64;50.53;100275.63;10957671;27;20021;-81
2024/04/24 14:03:37;;;;;;;;;;;;;;;27.70;50.44;100272.53;10978035;27;20446;-81
2024/04/24 14:09:01;;;;;;;45.45;6.55;;;;;;;27.52;50.60;100281.84;10957171;27;19926;-79
2024/04/24 14:14:29;;;;;;;48.95;6.93;;;;;;;27.18;52.42;100285.69;10974299;27;20013;-79
2024/04/24 14:19:54;;;;;;;43.72;7.05;;;;;;;27.27;52.65;100283.31;11009420;26;20042;-79
2024/04/24 14:25:18;;;;;;;33.90;6.15;;;;;;;27.38;52.90;100274.50;11014278;26;20013;-80
2024/04/24 14:30:45;;;;;;;39.30;5.72;;;;;;;27.38;51.66;100271.81;10930122;27;20006;-80
2024/04/24 14:36:10;;;;;;;37.78;5.32;;;;;;;27.40;51.19;100278.00;10913076;27;20025;-82
2024/04/24 14:41:34;;;;;;;26.13;5.03;;;;;;;27.29;51.17;100275.09;10908759;27;20431;-81
2024/04/24 14:47:01;;;;;;;30.88;5.55;;;;;;;27.23;50.85;100276.34;10908649;27;20331;-81
2024/04/24 14:52:25;;;;;;;25.38;4.28;;;;;;;27.21;50.38;100269.25;10918792;27;20014;-81
2024/04/24 14:57:49;;;;;;;30.13;4.40;;;;;;;27.01;49.28;100254.22;10951572;27;20006;-80
2024/04/24 15:03:16;;;;;;;26.02;4.40;;;;;;;26.83;48.17;100264.28;10932505;27;20432;-80
2024/04/24 15:08:41;;;;;;;18.75;4.15;;;;;;;26.70;46.71;100274.13;10908997;27;20080;-81
2024/04/24 15:14:06;;;;;;;16.33;2.92;;;;;;;26.67;44.57;100265.28;10868506;27;20060;-82
2024/04/24 15:19:33;;;;;;;21.85;3.42;;;;;;;26.57;43.20;100260.41;10993648;26;20037;-80
2024/04/24 15:24:57;;;;;;;;;;;;;;;26.47;42.36;100267.31;11051613;26;20001;-81
2024/04/24 15:30:26;;;;;;;18.55;3.30;;;;;;;26.30;42.02;100261.13;10931865;27;19927;-81
2024/04/24 15:35:53;;;;;;;17.77;3.33;;;;;;;26.13;41.95;100253.94;10915107;27;20002;-80
2024/04/24 15:41:17;;;;;;;13.90;3.30;;;;;;;25.87;42.89;100271.63;10956225;27;20001;-81
2024/04/24 15:46:42;;;;;;;19.55;2.92;;;;;;;25.72;43.60;100258.97;10976932;27;20020;-81
2024/04/24 15:52:09;;;;;;;16.42;3.80;;;;;;;25.55;44.39;100267.06;10936225;27;20333;-80
2024/04/24 15:57:34;;;;;;;17.52;3.70;;;;;;;25.33;45.33;100264.66;10966919;27;20812;-80
2024/04/24 16:02:58;;;;;;;17.38;3.83;;;;;;;25.11;46.12;100267.63;10981176;27;20334;-80
2024/04/24 16:08:25;;;;;;;10.02;2.65;;;;;;;24.87;48.02;100268.84;10954477;27;20447;-80
2024/04/24 16:13:49;;;;;;;19.10;4.13;;;;;;;24.65;49.90;100268.19;10949139;27;20016;-78
2024/04/24 16:19:15;;;;;;;21.73;4.10;;;;;;;24.45;52.22;100270.06;10945112;27;20750;-76
2024/04/24 16:24:43;;;;;;;20.85;4.32;;;;;;;24.30;53.85;100270.78;10952413;27;20080;-78
2024/04/24 16:30:08;;;;;;;19.35;4.15;;;;;;;24.13;55.50;100274.28;10978421;27;20766;-79
2024/04/24 16:35:32;;;;;;;24.92;4.55;;;;;;;24.04;56.50;100269.31;10939897;27;20088;-76
2024/04/24 16:41:00;;;;;;;18.00;3.58;;;;;;;23.86;58.62;100272.91;10982266;27;20045;-81
2024/04/24 16:46:25;;;;;;;22.05;5.75;;;;;;;23.66;60.56;100273.81;10982549;27;20010;-80
2024/04/24 16:51:49;;;;;;;16.73;3.70;;;;;;;23.45;63.68;100281.03;10955988;27;20002;-78
2024/04/24 16:57:17;;;;;;;24.15;5.03;;;;;;;23.34;66.18;100291.41;10958255;27;20021;-79
2024/04/24 17:02:41;;;;;;;22.80;4.37;;;;;;;23.18;68.49;100289.44;10960229;27;20012;-80
2024/04/24 17:08:05;;;;;;;15.55;3.47;;;;;;;23.14;70.31;100283.34;10925410;27;20053;-79
2024/04/24 17:13:32;;;;;;;14.02;4.10;;;;;;;23.00;74.00;100289.31;10896178;27;20021;-82
2024/04/24 17:18:56;;;;;;;21.67;4.60;;;;;;;22.80;76.75;100291.09;10962710;26;20528;-78
2024/04/24 17:24:24;;;;;;;20.92;4.13;;;;;;;22.61;81.92;100286.47;10926932;27;20034;-80
2024/04/24 17:29:51;;;;;;;22.25;4.70;;;;;;;22.53;85.42;100304.72;10981433;26;20014;-82
2024/04/24 17:35:15;;;;;;;18.02;4.35;;;;;;;22.56;85.62;100307.31;10972717;26;20014;-79
2024/04/24 17:40:39;;;;;;;11.90;3.72;;;;;;;22.60;85.18;100310.75;10900316;27;20025;-78
2024/04/24 17:46:06;;;;;;;20.23;4.38;;;;;;;22.63;85.81;100321.41;10922639;27;20005;-78
2024/04/24 17:51:31;;;;;;;21.45;5.25;;;;;;;22.59;86.26;100322.44;10981486;26;20070;-78
2024/04/24 17:56:55;;;;;;;20.80;4.32;;;;;;;22.49;88.44;100331.84;10931037;27;20019;-81
2024/04/24 18:02:22;;;;;;;18.48;4.03;;;;;;;22.39;90.29;100327.75;10916921;27;20042;-78
2024/04/24 18:07:46;;;;;;;15.63;4.20;;;;;;;22.26;90.62;100348.88;10954967;27;20051;-80
2024/04/24 18:13:12;;;;;;;24.65;4.75;;;;;;;22.19;91.15;100340.16;10980352;27;20562;-78
2024/04/24 18:18:40;;;;;;;17.17;4.03;;;;;;;22.17;91.97;100343.88;10988915;26;20338;-79
2024/04/24 18:24:04;;;;;;;17.73;4.47;;;;;;;22.16;90.99;100340.31;11022916;26;20311;-79
2024/04/24 18:29:28;;;;;;;16.42;3.58;;;;;;;22.03;91.82;100344.41;10938784;27;20024;-78
2024/04/24 18:34:56;;;;;;;17.33;4.25;;;;;;;21.88;93.51;100350.31;10923318;27;20455;-78
2024/04/24 18:40:20;;;;;;;23.37;4.47;;;;;;;21.81;93.81;100348.78;10933643;27;20021;-77
2024/04/24 18:45:45;;;;;;;15.15;5.03;;;;;;;21.82;93.55;100363.97;10947438;27;20017;-80
2024/04/24 18:51:12;;;;;;;25.95;5.78;;;;;;;21.69;94.34;100355.50;10896074;27;20014;-78
2024/04/24 18:56:36;;;;;;;17.97;4.93;;;;;;;21.46;95.79;100361.69;10908983;27;20002;-78
2024/04/24 19:02:00;;;;;;;24.17;4.25;;;;;;;21.33;97.40;100360.34;10922475;27;20006;-78
2024/04/24 19:07:28;;;;;;;15.95;4.28;;;;;;;21.39;97.74;100362.84;10940412;26;20022;-78
2024/04/24 19:12:52;;;;;;;23.60;4.67;;;;;;;21.12;98.79;100363.78;10949091;27;20011;-78
2024/04/24 19:18:16;;;;;;;22.05;4.78;;;;;;;21.04;99.63;100355.97;10923808;26;20012;-78
2024/04/24 19:23:43;;;;;;;22.27;4.80;;;;;;;21.10;99.80;100368.31;10973638;27;20422;-78
2024/04/24 19:29:08;;;;;;;19.00;4.67;;;;;;;20.94;100.00;100370.63;10982695;26;20026;-80
2024/04/24 19:34:32;;;;;;;15.75;4.35;;;;;;;20.76;100.00;100360.50;10965240;27;20003;-80
2024/04/24 19:40:00;;;;;;;18.63;4.78;;;;;;;20.91;100.00;100369.84;10978520;27;20060;-80
2024/04/24 19:45:24;;;;;;;14.85;3.72;;;;;;;20.99;100.00;100367.78;10940024;27;20010;-79
2024/04/24 19:50:48;;;;;;;20.85;4.93;;;;;;;20.92;100.00;100363.56;10949920;27;20016;-80
2024/04/24 19:56:15;;;;;;;17.85;4.15;;;;;;;20.67;100.00;100360.81;10892875;27;20072;-79
2024/04/24 20:01:41;;;;;;;14.67;4.47;;;;;;;20.38;100.00;100371.56;10946903;27;20024;-80
2024/04/24 20:07:05;;;;;;;21.55;5.18;;;;;;;20.25;100.00;100384.44;10945796;27;20018;-80
2024/04/24 20:12:33;;;;;;;19.50;4.13;;;;;;;20.26;100.00;100365.63;10958954;27;20454;-81
2024/04/24 20:17:58;;;;;;;24.83;5.20;;;;;;;20.23;100.00;100367.50;10917884;26;1338332;-81
2024/04/24 20:23:25;;;;;;;13.70;3.92;;;;;;;20.12;100.00;100367.84;10949477;26;20006;-78
2024/04/24 20:28:53;;;;;;;19.35;4.18;;;;;;;20.11;100.00;100366.06;10916068;27;20084;-79
2024/04/24 20:34:17;;;;;;;15.55;4.60;;;;;;;20.28;100.00;100357.53;10926912;27;20014;-79
2024/04/24 20:39:42;;;;;;;17.85;5.15;;;;;;;20.37;100.00;100367.13;10988955;26;20080;-79
2024/04/24 20:45:10;;;;;;;16.33;4.18;;;;;;;20.33;100.00;100361.00;10934700;27;20018;-81
2024/04/24 20:50:34;;;;;;;17.80;4.72;;;;;;;20.02;100.00;100355.63;10933335;27;20378;-80
2024/04/24 20:55:58;;;;;;;20.10;4.45;;;;;;;19.98;100.00;100350.41;10942408;27;20006;-79
2024/04/24 21:01:26;;;;;;;14.73;4.05;;;;;;;20.15;100.00;100357.00;10958839;27;20016;-82
2024/04/24 21:06:50;;;;;;;23.23;4.57;;;;;;;20.13;100.00;100345.47;10897785;27;20021;-80
2024/04/24 21:12:15;;;;;;;17.77;3.78;;;;;;;19.98;100.00;100356.66;10915863;27;20479;-80
2024/04/24 21:17:43;;;;;;;17.33;4.00;;;;;;;20.00;100.00;100332.50;10948344;26;20064;-81
2024/04/24 21:23:07;;;;;;;16.08;4.03;;;;;;;19.76;100.00;100337.63;10916975;27;20054;-80
2024/04/24 21:28:36;;;;;;;18.77;4.32;;;;;;;19.81;100.00;100348.22;10942750;27;20012;-81
2024/04/24 21:34:03;;;;;;;13.43;3.75;;;;;;;19.75;100.00;100362.69;10914959;27;20017;-80
2024/04/24 21:39:27;;;;;;;11.93;3.75;;;;;;;19.63;100.00;100362.13;10967407;27;20017;-81
2024/04/24 21:44:52;;;;;;;18.67;4.13;;;;;;;19.49;100.00;100371.41;10940572;27;20006;-80
2024/04/24 21:50:19;;;;;;;16.50;4.22;;;;;;;19.31;100.00;100371.88;10978097;27;20006;-80
2024/04/24 21:55:43;;;;;;;16.13;4.10;;;;;;;19.12;100.00;100381.31;10960231;27;20457;-80
2024/04/24 22:01:07;;;;;;;15.88;4.60;;;;;;;19.15;100.00;100367.88;10927626;27;20082;-80
2024/04/24 22:06:35;;;;;;;18.35;4.38;;;;;;;19.38;100.00;100356.53;10927275;27;20017;-79
2024/04/24 22:12:00;;;;;;;16.85;4.13;;;;;;;19.26;100.00;100355.06;10959442;27;20032;-79
2024/04/24 22:17:24;;;;;;;18.65;3.63;;;;;;;19.42;100.00;100366.25;10956078;26;20594;-79
2024/04/24 22:22:51;;;;;;;17.25;3.58;;;;;;;19.50;100.00;100378.53;10982746;27;20045;-80
2024/04/24 22:28:16;;;;;;;12.95;3.88;;;;;;;19.31;100.00;100374.56;10972889;27;20017;-80
2024/04/24 22:33:40;;;;;;;13.75;3.53;;;;;;;18.92;100.00;100359.53;10982458;27;20102;-79
2024/04/24 22:39:07;;;;;;;13.52;3.60;;;;;;;18.85;100.00;100360.59;10945599;27;20001;-80
2024/04/24 22:44:31;;;;;;;13.00;3.53;;;;;;;18.88;100.00;100361.41;10983118;27;20002;-80
2024/04/24 22:49:55;;;;;;;15.93;4.15;;;;;;;18.87;100.00;100356.97;10981216;27;20005;-80
2024/04/24 22:55:22;;;;;;;11.68;3.47;;;;;;;18.82;100.00;100342.84;10958721;27;20441;-80
2024/04/24 23:00:47;;;;;;;19.38;4.38;;;;;;;18.39;100.00;100324.22;10972476;27;20807;-79
2024/04/24 23:06:12;;;;;;;17.58;3.75;;;;;;;18.28;100.00;100324.50;10995706;26;20068;-80
2024/04/24 23:11:39;;;;;;;12.50;3.60;;;;;;;18.53;100.00;100316.78;10944749;27;20017;-80
2024/04/24 23:17:03;;;;;;;18.52;4.28;;;;;;;18.71;100.00;100318.13;10972614;26;20003;-79
2024/04/24 23:22:28;;;;;;;14.93;3.63;;;;;;;18.59;100.00;100311.31;10937538;27;20002;-79
2024/04/24 23:27:55;;;;;;;18.45;4.28;;;;;;;18.31;100.00;100311.03;10915254;27;20002;-79
2024/04/24 23:33:19;;;;;;;16.17;4.00;;;;;;;18.13;100.00;100291.88;10954258;27;20327;-80
2024/04/24 23:38:43;;;;;;;15.73;3.80;;;;;;;17.87;100.00;100298.69;10941860;27;20005;-79
2024/04/24 23:44:11;;;;;;;19.85;3.85;;;;;;;17.87;100.00;100282.66;10969055;27;19997;-79
2024/04/24 23:49:38;;;;;;;15.20;4.03;;;;;;;18.02;100.00;100286.81;10963485;27;20016;-80
2024/04/24 23:55:02;;;;;;;12.38;3.63;;;;;;;18.18;100.00;100282.84;10954740;27;20046;-79
